createdAt,value
2023-04-02T00:00:11.957Z,100.00
2023-04-02T00:03:10.984Z,100.00
2023-04-02T00:05:50.895Z,100.00
2023-04-02T00:08:29.412Z,100.00
2023-04-02T00:11:00.406Z,100.00
2023-04-02T00:13:46.945Z,100.00
2023-04-02T00:16:18.950Z,100.00
2023-04-02T00:18:50.838Z,100.00
2023-04-02T00:21:23.954Z,100.00
2023-04-02T00:23:50.927Z,100.00
2023-04-02T00:26:37.048Z,100.00
2023-04-02T00:29:14.867Z,100.00
2023-04-02T00:31:45.801Z,100.00
2023-04-02T00:34:24.139Z,100.00
2023-04-02T00:36:53.024Z,100.00
2023-04-02T00:39:27.247Z,100.00
2023-04-02T00:42:05.120Z,100.00
2023-04-02T00:44:42.706Z,100.00
2023-04-02T00:47:21.668Z,100.00
2023-04-02T00:49:57.214Z,100.00
2023-04-02T00:52:28.574Z,100.00
2023-04-02T00:55:14.179Z,100.00
2023-04-02T00:57:45.187Z,100.00
2023-04-02T01:00:32.132Z,100.00
2023-04-02T01:03:17.552Z,100.00
2023-04-02T01:06:11.218Z,100.00
2023-04-02T01:08:49.768Z,100.00
2023-04-02T01:12:08.201Z,100.00
2023-04-02T01:15:09.742Z,100.00
2023-04-02T01:18:02.539Z,100.00
2023-04-02T01:20:47.760Z,100.00
2023-04-02T01:23:28.573Z,100.00
2023-04-02T01:26:11.652Z,100.00
2023-04-02T01:29:15.604Z,100.00
2023-04-02T01:31:44.671Z,100.00
2023-04-02T01:34:16.740Z,100.00
2023-04-02T01:37:11.461Z,100.00
2023-04-02T01:40:05.464Z,100.00
2023-04-02T01:42:43.587Z,100.00
2023-04-02T01:45:19.517Z,100.00
2023-04-02T01:47:46.820Z,100.00
2023-04-02T01:50:20.198Z,100.00
2023-04-02T01:52:51.252Z,100.00
2023-04-02T01:55:49.529Z,100.00
2023-04-02T01:58:25.380Z,100.00
2023-04-02T02:01:09.435Z,100.00
2023-04-02T02:03:44.332Z,100.00
2023-04-02T02:06:16.026Z,100.00
2023-04-02T02:08:55.618Z,100.00
2023-04-02T02:11:27.572Z,100.00
2023-04-02T02:14:01.144Z,100.00
2023-04-02T02:16:30.098Z,100.00
2023-04-02T02:19:01.849Z,100.00
2023-04-02T02:21:39.181Z,100.00
2023-04-02T02:24:19.546Z,100.00
2023-04-02T02:26:51.453Z,100.00
2023-04-02T02:29:21.949Z,100.00
2023-04-02T02:31:54.347Z,100.00
2023-04-02T02:34:30.410Z,100.00
2023-04-02T02:37:06.707Z,100.00
2023-04-02T02:39:39.951Z,100.00
2023-04-02T02:42:27.251Z,100.00
2023-04-02T02:44:56.619Z,100.00
2023-04-02T02:47:36.284Z,100.00
2023-04-02T02:50:14.137Z,100.00
2023-04-02T02:52:50.338Z,100.00
2023-04-02T02:55:24.725Z,100.00
2023-04-02T02:58:23.375Z,100.00
2023-04-02T03:01:04.695Z,100.00
2023-04-02T03:03:35.101Z,100.00
2023-04-02T03:06:09.525Z,100.00
2023-04-02T03:08:43.766Z,100.00
2023-04-02T03:11:40.888Z,100.00
2023-04-02T03:14:45.616Z,100.00
2023-04-02T03:17:28.126Z,100.00
2023-04-02T03:20:25.105Z,100.00
2023-04-02T03:23:13.183Z,100.00
2023-04-02T03:26:14.580Z,100.00
2023-04-02T03:28:50.910Z,100.00
2023-04-02T03:31:31.018Z,100.00
2023-04-02T03:34:05.638Z,100.00
2023-04-02T03:36:43.588Z,100.00
2023-04-02T03:39:20.737Z,100.00
2023-04-02T03:42:15.653Z,100.00
2023-04-02T03:45:05.290Z,100.00
2023-04-02T03:47:49.681Z,100.00
2023-04-02T03:50:31.741Z,100.00
2023-04-02T03:53:03.106Z,100.00
2023-04-02T03:55:34.351Z,100.00
2023-04-02T03:58:05.533Z,100.00
2023-04-02T04:00:49.687Z,100.00
2023-04-02T04:03:25.954Z,100.00
2023-04-02T04:06:02.856Z,100.00
2023-04-02T04:08:42.553Z,100.00
2023-04-02T04:11:16.449Z,100.00
2023-04-02T04:14:01.416Z,100.00
2023-04-02T04:16:49.376Z,100.00
2023-04-02T04:19:21.852Z,100.00
2023-04-02T04:21:53.948Z,100.00
2023-04-02T04:24:25.479Z,100.00
2023-04-02T04:27:36.002Z,100.00
2023-04-02T04:31:01.006Z,100.00
2023-04-02T04:33:45.639Z,100.00
2023-04-02T04:36:29.774Z,100.00
2023-04-02T04:39:14.573Z,100.00
2023-04-02T04:41:46.748Z,100.00
2023-04-02T04:44:28.745Z,100.00
2023-04-02T04:47:40.692Z,100.00
2023-04-02T04:50:32.159Z,100.00
2023-04-02T04:53:19.942Z,100.00
2023-04-02T04:56:12.503Z,100.00
2023-04-02T04:59:13.216Z,100.00
2023-04-02T05:01:55.729Z,100.00
2023-04-02T05:04:39.288Z,100.00
2023-04-02T05:07:22.123Z,100.00
2023-04-02T05:10:21.822Z,100.00
2023-04-02T05:12:53.875Z,100.00
2023-04-02T05:15:48.836Z,100.00
2023-04-02T05:18:41.873Z,100.00
2023-04-02T05:21:33.868Z,100.00
2023-04-02T05:24:37.731Z,100.00
2023-04-02T05:27:36.605Z,100.00
2023-04-02T05:30:13.540Z,100.00
2023-04-02T05:33:05.158Z,100.00
2023-04-02T05:35:36.953Z,100.00
2023-04-02T05:38:06.638Z,100.00
2023-04-02T05:40:41.459Z,100.00
2023-04-02T05:43:11.107Z,100.00
2023-04-02T05:45:47.875Z,100.00
2023-04-02T05:48:32.435Z,100.00
2023-04-02T05:51:00.573Z,100.00
2023-04-02T05:53:47.330Z,100.00
2023-04-02T05:56:42.174Z,100.00
2023-04-02T05:59:21.779Z,100.00
2023-04-02T06:02:24.029Z,100.00
2023-04-02T06:05:13.581Z,100.00
2023-04-02T06:07:55.478Z,100.00
2023-04-02T06:10:30.879Z,100.00
2023-04-02T06:13:07.134Z,100.00
2023-04-02T06:15:38.721Z,100.00
2023-04-02T06:18:23.346Z,100.00
2023-04-02T06:20:52.763Z,100.00
2023-04-02T06:23:24.187Z,100.00
2023-04-02T06:26:19.290Z,100.00
2023-04-02T06:29:04.458Z,100.00
2023-04-02T06:32:06.831Z,100.00
2023-04-02T06:34:36.795Z,100.00
2023-04-02T06:37:29.057Z,100.00
2023-04-02T06:40:44.914Z,100.00
2023-04-02T06:43:36.158Z,100.00
2023-04-02T06:46:40.441Z,100.00
2023-04-02T06:49:25.426Z,100.00
2023-04-02T06:52:00.793Z,100.00
2023-04-02T06:54:28.791Z,100.00
2023-04-02T06:57:00.218Z,100.00
2023-04-02T06:59:36.589Z,100.00
2023-04-02T07:02:38.117Z,100.00
2023-04-02T07:05:09.353Z,100.00
2023-04-02T07:07:39.211Z,100.00
2023-04-02T07:10:09.465Z,100.00
2023-04-02T07:12:36.583Z,100.00
2023-04-02T07:15:03.865Z,100.00
2023-04-02T07:17:31.001Z,100.00
2023-04-02T07:20:01.005Z,100.00
2023-04-02T07:22:28.006Z,100.00
2023-04-02T07:24:58.741Z,100.00
2023-04-02T07:27:26.215Z,100.00
2023-04-02T07:29:53.199Z,100.00
2023-04-02T07:32:20.245Z,100.00
2023-04-02T07:34:47.347Z,100.00
2023-04-02T07:37:14.773Z,100.00
2023-04-02T07:39:42.275Z,100.00
2023-04-02T07:42:09.911Z,100.00
2023-04-02T07:44:36.817Z,100.00
2023-04-02T07:47:04.195Z,100.00
2023-04-02T07:49:31.156Z,100.00
2023-04-02T07:51:58.054Z,100.00
2023-04-02T07:54:25.059Z,100.00
2023-04-02T07:56:51.944Z,100.00
2023-04-02T07:59:18.907Z,100.00
2023-04-02T08:01:45.875Z,100.00
2023-04-02T08:04:23.100Z,100.00
2023-04-02T08:06:50.699Z,100.00
2023-04-02T08:09:17.889Z,100.00
2023-04-02T08:11:46.462Z,100.00
2023-04-02T08:14:13.720Z,100.00
2023-04-02T08:16:51.328Z,100.00
2023-04-02T08:19:19.682Z,100.00
2023-04-02T08:21:50.365Z,100.00
2023-04-02T08:24:21.370Z,100.00
2023-04-02T08:26:51.510Z,100.00
2023-04-02T08:29:18.549Z,100.00
2023-04-02T08:31:45.591Z,100.00
2023-04-02T08:34:12.872Z,100.00
2023-04-02T08:36:43.689Z,100.00
2023-04-02T08:39:13.749Z,100.00
2023-04-02T08:41:48.581Z,100.00
2023-04-02T08:44:30.271Z,100.00
2023-04-02T08:47:04.214Z,100.00
2023-04-02T08:50:01.682Z,100.00
2023-04-02T08:52:37.216Z,100.00
2023-04-02T08:55:18.588Z,100.00
2023-04-02T08:58:13.442Z,100.00
2023-04-02T09:00:44.316Z,100.00
2023-04-02T09:03:25.820Z,100.00
2023-04-02T09:05:53.523Z,100.00
2023-04-02T09:08:25.014Z,100.00
2023-04-02T09:10:58.780Z,100.00
2023-04-02T09:13:29.469Z,100.00
2023-04-02T09:16:06.461Z,100.00
2023-04-02T09:18:33.835Z,100.00
2023-04-02T09:21:13.044Z,100.00
2023-04-02T09:23:39.972Z,100.00
2023-04-02T09:26:23.531Z,100.00
2023-04-02T09:29:12.722Z,100.00
2023-04-02T09:32:02.489Z,100.00
2023-04-02T09:34:31.654Z,100.00
2023-04-02T09:37:17.643Z,100.00
2023-04-02T09:39:45.420Z,100.00
2023-04-02T09:42:36.197Z,100.00
2023-04-02T09:45:23.896Z,100.00
2023-04-02T09:47:52.628Z,100.00
2023-04-02T09:50:23.357Z,100.00
2023-04-02T09:52:51.385Z,100.00
2023-04-02T09:55:26.261Z,100.00
2023-04-02T09:58:17.323Z,100.00
2023-04-02T10:00:52.771Z,100.00
2023-04-02T10:03:30.047Z,100.00
2023-04-02T10:06:08.180Z,100.00
2023-04-02T10:08:36.988Z,100.00
2023-04-02T10:11:11.356Z,100.00
2023-04-02T10:13:43.459Z,100.00
2023-04-02T10:16:34.425Z,100.00
2023-04-02T10:19:26.428Z,100.00
2023-04-02T10:21:55.799Z,100.00
2023-04-02T10:24:23.442Z,100.00
2023-04-02T10:27:11.623Z,100.00
2023-04-02T10:30:21.814Z,100.00
2023-04-02T10:33:38.516Z,100.00
2023-04-02T10:36:58.576Z,100.00
2023-04-02T10:39:47.368Z,100.00
2023-04-02T10:42:44.395Z,100.00
2023-04-02T10:45:29.299Z,100.00
2023-04-02T10:48:25.430Z,100.00
2023-04-02T10:51:33.758Z,100.00
2023-04-02T10:54:27.875Z,100.00
2023-04-02T10:57:04.932Z,100.00
2023-04-02T10:59:35.425Z,100.00
2023-04-02T11:02:31.937Z,100.00
2023-04-02T11:05:11.638Z,100.00
2023-04-02T11:07:53.575Z,100.00
2023-04-02T11:10:21.716Z,100.00
2023-04-02T11:12:58.228Z,100.00
2023-04-02T11:15:26.164Z,100.00
2023-04-02T11:17:53.409Z,82.77
2023-04-02T11:20:57.219Z,81.61
2023-04-02T11:23:29.883Z,78.99
2023-04-02T11:26:41.072Z,81.53
2023-04-02T11:29:25.071Z,82.35
2023-04-02T11:32:25.192Z,80.15
2023-04-02T11:35:05.682Z,78.81
2023-04-02T11:37:44.990Z,79.28
2023-04-02T11:40:12.187Z,79.34
2023-04-02T11:42:43.044Z,79.34
2023-04-02T11:45:52.905Z,78.09
2023-04-02T11:48:20.069Z,78.60
2023-04-02T11:50:47.245Z,77.91
2023-04-02T11:53:22.767Z,77.37
2023-04-02T11:56:09.971Z,77.58
2023-04-02T11:58:43.713Z,77.00
2023-04-02T12:02:11.633Z,77.90
2023-04-02T12:05:04.195Z,75.19
2023-04-02T12:08:05.114Z,74.48
2023-04-02T12:10:56.161Z,74.38
2023-04-02T12:13:41.205Z,74.38
2023-04-02T12:16:13.020Z,75.24
2023-04-02T12:18:55.024Z,75.35
2023-04-02T12:21:30.033Z,72.29
2023-04-02T12:23:59.440Z,71.31
2023-04-02T12:26:37.375Z,72.06
2023-04-02T12:29:28.110Z,68.78
2023-04-02T12:31:58.362Z,71.22
2023-04-02T12:34:29.165Z,71.31
2023-04-02T12:36:59.874Z,70.49
2023-04-02T12:39:28.515Z,67.76
2023-04-02T12:41:56.431Z,68.28
2023-04-02T12:44:30.377Z,68.73
2023-04-02T12:46:59.264Z,68.71
2023-04-02T12:49:40.703Z,67.75
2023-04-02T12:52:20.893Z,69.60
2023-04-02T12:55:00.371Z,68.55
2023-04-02T12:57:27.459Z,66.50
2023-04-02T12:59:57.340Z,68.25
2023-04-02T13:02:27.540Z,67.96
2023-04-02T13:05:03.608Z,68.55
2023-04-02T13:07:33.579Z,66.92
2023-04-02T13:10:05.220Z,64.06
2023-04-02T13:12:38.642Z,65.63
2023-04-02T13:15:09.420Z,64.69
2023-04-02T13:17:48.682Z,61.65
2023-04-02T13:20:38.818Z,63.49
2023-04-02T13:23:30.601Z,60.58
2023-04-02T13:26:01.348Z,61.32
2023-04-02T13:28:29.303Z,60.92
2023-04-02T13:30:56.294Z,60.65
2023-04-02T13:33:23.220Z,57.55
2023-04-02T13:35:50.921Z,56.59
2023-04-02T13:38:17.868Z,56.31
2023-04-02T13:40:45.031Z,56.61
2023-04-02T13:43:19.756Z,57.04
2023-04-02T13:45:52.114Z,59.13
2023-04-02T13:48:19.404Z,55.20
2023-04-02T13:50:52.781Z,56.87
2023-04-02T13:53:29.367Z,55.88
2023-04-02T13:55:56.591Z,56.68
2023-04-02T13:58:23.760Z,55.45
2023-04-02T14:00:51.087Z,55.54
2023-04-02T14:03:22.361Z,55.17
2023-04-02T14:05:59.758Z,57.46
2023-04-02T14:09:00.169Z,57.82
2023-04-02T14:11:57.836Z,57.72
2023-04-02T14:14:46.560Z,58.36
2023-04-02T14:17:43.808Z,58.55
2023-04-02T14:20:29.293Z,58.00
2023-04-02T14:23:20.580Z,58.31
2023-04-02T14:25:52.896Z,57.11
2023-04-02T14:28:23.750Z,55.79
2023-04-02T14:31:18.464Z,59.60
2023-04-02T14:34:09.556Z,56.91
2023-04-02T14:37:13.859Z,56.74
2023-04-02T14:40:21.882Z,58.21
2023-04-02T14:43:12.169Z,57.38
2023-04-02T14:46:01.724Z,57.67
2023-04-02T14:48:54.436Z,59.06
2023-04-02T14:51:43.495Z,57.37
2023-04-02T14:54:50.215Z,57.32
2023-04-02T14:57:25.073Z,56.08
2023-04-02T15:00:03.782Z,56.75
2023-04-02T15:02:41.986Z,57.56
2023-04-02T15:05:41.310Z,57.51
2023-04-02T15:08:38.559Z,58.96
2023-04-02T15:11:31.299Z,59.24
2023-04-02T15:14:19.806Z,58.84
2023-04-02T15:16:46.917Z,58.58
2023-04-02T15:19:19.124Z,57.87
2023-04-02T15:22:13.167Z,56.67
2023-04-02T15:25:15.842Z,57.98
2023-04-02T15:28:27.981Z,56.11
2023-04-02T15:30:58.931Z,55.25
2023-04-02T15:33:41.907Z,57.32
2023-04-02T15:36:33.199Z,55.53
2023-04-02T15:39:31.882Z,56.74
2023-04-02T15:42:34.847Z,57.06
2023-04-02T15:45:10.739Z,57.60
2023-04-02T15:48:17.811Z,56.21
2023-04-02T15:50:50.943Z,56.65
2023-04-02T15:53:26.746Z,54.77
2023-04-02T15:56:08.095Z,55.15
2023-04-02T15:59:07.451Z,56.83
2023-04-02T16:02:11.912Z,56.87
2023-04-02T16:04:47.194Z,57.46
2023-04-02T16:07:30.727Z,58.39
2023-04-02T16:10:12.751Z,59.09
2023-04-02T16:12:40.949Z,57.40
2023-04-02T16:15:37.790Z,58.92
2023-04-02T16:18:18.441Z,56.14
2023-04-02T16:20:47.642Z,55.05
2023-04-02T16:23:21.124Z,54.49
2023-04-02T16:26:09.196Z,55.45
2023-04-02T16:29:10.735Z,57.27
2023-04-02T16:32:16.754Z,56.67
2023-04-02T16:38:07.696Z,56.36
2023-04-02T16:41:07.031Z,57.55
2023-04-02T16:44:07.933Z,58.28
2023-04-02T16:47:04.606Z,58.17
2023-04-02T16:50:04.224Z,58.55
2023-04-02T16:52:59.331Z,59.15
2023-04-02T16:55:43.023Z,59.70
2023-04-02T16:58:50.457Z,61.41
2023-04-02T17:01:26.409Z,61.05
2023-04-02T17:04:10.999Z,61.16
2023-04-02T17:06:42.778Z,61.68
2023-04-02T17:09:17.006Z,61.90
2023-04-02T17:12:07.653Z,61.63
2023-04-02T17:14:48.308Z,61.46
2023-04-02T17:17:16.404Z,60.66
2023-04-02T17:19:53.902Z,60.24
2023-04-02T17:22:23.394Z,61.33
2023-04-02T17:24:59.296Z,60.25
2023-04-02T17:27:35.001Z,59.82
2023-04-02T17:30:16.416Z,61.21
2023-04-02T17:32:43.800Z,62.17
2023-04-02T17:35:29.787Z,62.28
2023-04-02T17:38:02.683Z,62.58
2023-04-02T17:40:43.837Z,62.69
2023-04-02T17:43:46.093Z,62.58
2023-04-02T17:46:31.703Z,62.25
2023-04-02T17:49:36.401Z,62.69
2023-04-02T17:52:30.189Z,62.99
2023-04-02T17:55:12.338Z,63.04
2023-04-02T17:58:01.569Z,62.96
2023-04-02T18:00:58.206Z,63.15
2023-04-02T18:04:03.370Z,63.28
2023-04-02T18:06:51.570Z,63.40
2023-04-02T18:09:36.601Z,64.12
2023-04-02T18:12:22.145Z,64.52
2023-04-02T18:15:36.067Z,64.05
2023-04-02T18:18:34.208Z,64.17
2023-04-02T18:21:19.133Z,64.61
2023-04-02T18:24:16.028Z,64.81
2023-04-02T18:27:05.835Z,65.09
2023-04-02T18:29:58.566Z,65.59
2023-04-02T18:32:50.753Z,65.54
2023-04-02T18:35:27.982Z,65.84
2023-04-02T18:38:04.140Z,66.71
2023-04-02T18:40:54.250Z,66.53
2023-04-02T18:43:53.851Z,66.89
2023-04-02T18:46:41.353Z,67.20
2023-04-02T18:49:25.973Z,67.13
2023-04-02T18:51:59.844Z,67.34
2023-04-02T18:54:49.745Z,67.75
2023-04-02T18:57:33.936Z,67.35
2023-04-02T19:00:14.788Z,67.25
2023-04-02T19:02:51.189Z,67.13
2023-04-02T19:05:35.240Z,66.74
2023-04-02T19:08:16.706Z,67.48
2023-04-02T19:10:53.839Z,67.71
2023-04-02T19:13:21.481Z,68.06
2023-04-02T19:16:19.446Z,68.51
2023-04-02T19:19:11.094Z,68.91
2023-04-02T19:22:01.544Z,68.80
2023-04-02T19:25:18.644Z,69.69
2023-04-02T19:28:00.148Z,69.65
2023-04-02T19:31:03.975Z,70.06
2023-04-02T19:33:45.470Z,70.45
2023-04-02T19:36:35.752Z,70.63
2023-04-02T19:39:49.189Z,70.18
2023-04-02T19:42:44.078Z,70.93
2023-04-02T19:45:35.456Z,71.56
2023-04-02T19:48:28.109Z,72.14
2023-04-02T19:50:56.097Z,72.54
2023-04-02T19:53:23.032Z,73.41
2023-04-02T19:55:51.054Z,73.59
2023-04-02T19:58:28.097Z,74.19
2023-04-02T20:00:58.346Z,74.50
2023-04-02T20:03:25.580Z,74.63
2023-04-02T20:05:53.092Z,75.86
2023-04-02T20:08:20.570Z,75.88
2023-04-02T20:10:47.582Z,76.65
2023-04-02T20:13:14.626Z,77.39
2023-04-02T20:15:41.719Z,77.42
2023-04-02T20:18:10.450Z,78.36
2023-04-02T20:20:39.047Z,80.50
2023-04-02T20:23:06.883Z,80.62
2023-04-02T20:25:33.989Z,81.38
2023-04-02T20:28:02.892Z,83.13
2023-04-02T20:30:32.426Z,84.11
2023-04-02T20:32:59.891Z,85.28
2023-04-02T20:35:27.424Z,85.10
2023-04-02T20:37:54.462Z,86.40
2023-04-02T20:40:21.732Z,86.72
2023-04-02T20:42:48.692Z,87.52
2023-04-02T20:45:15.805Z,87.47
2023-04-02T20:47:43.505Z,87.37
2023-04-02T20:50:11.319Z,88.78
2023-04-02T20:52:38.301Z,88.93
2023-04-02T20:55:06.223Z,89.42
2023-04-02T20:57:33.248Z,90.26
2023-04-02T21:00:02.464Z,90.70
2023-04-02T21:02:29.379Z,92.44
2023-04-02T21:04:56.430Z,92.70
2023-04-02T21:07:23.497Z,93.70
2023-04-02T21:09:51.822Z,94.70
2023-04-02T21:12:19.082Z,96.35
2023-04-02T21:14:46.413Z,97.79
2023-04-02T21:17:13.356Z,99.16
2023-04-02T21:19:40.378Z,98.33
2023-04-02T21:22:07.301Z,97.54
2023-04-02T21:24:34.211Z,98.64
2023-04-02T21:27:01.363Z,99.08
2023-04-02T21:29:28.313Z,98.42
2023-04-02T21:31:55.288Z,100.00
2023-04-02T21:34:22.327Z,100.00
2023-04-02T21:36:50.465Z,100.00
2023-04-02T21:39:23.278Z,100.00
2023-04-02T21:41:52.991Z,100.00
2023-04-02T21:44:22.722Z,100.00
2023-04-02T21:46:52.157Z,100.00
2023-04-02T21:49:22.688Z,100.00
2023-04-02T21:51:53.852Z,100.00
2023-04-02T21:54:21.078Z,100.00
2023-04-02T21:56:48.692Z,100.00
2023-04-02T21:59:17.317Z,100.00
2023-04-02T22:01:48.534Z,100.00
2023-04-02T22:04:24.860Z,100.00
2023-04-02T22:06:52.940Z,100.00
2023-04-02T22:09:23.421Z,100.00
2023-04-02T22:11:58.763Z,100.00
2023-04-02T22:14:25.962Z,100.00
2023-04-02T22:16:53.356Z,100.00
2023-04-02T22:19:20.756Z,100.00
2023-04-02T22:21:48.051Z,100.00
2023-04-02T22:24:22.366Z,100.00
2023-04-02T22:26:50.020Z,100.00
2023-04-02T22:29:17.189Z,100.00
2023-04-02T22:31:44.321Z,100.00
2023-04-02T22:34:11.424Z,100.00
2023-04-02T22:36:38.328Z,100.00
2023-04-02T22:39:09.728Z,100.00
2023-04-02T22:41:36.681Z,100.00
2023-04-02T22:44:03.873Z,100.00
2023-04-02T22:46:31.433Z,100.00
2023-04-02T22:48:58.951Z,100.00
2023-04-02T22:51:27.490Z,100.00
2023-04-02T22:53:55.897Z,100.00
2023-04-02T22:56:31.602Z,100.00
2023-04-02T22:58:58.634Z,100.00
2023-04-02T23:01:30.531Z,100.00
2023-04-02T23:03:58.229Z,100.00
2023-04-02T23:06:29.234Z,100.00
2023-04-02T23:08:56.316Z,100.00
2023-04-02T23:11:27.431Z,100.00
2023-04-02T23:13:56.814Z,100.00
2023-04-02T23:16:27.079Z,100.00
2023-04-02T23:18:55.429Z,100.00
2023-04-02T23:21:24.002Z,100.00
2023-04-02T23:23:51.434Z,100.00
2023-04-02T23:26:32.228Z,100.00
2023-04-02T23:29:00.426Z,100.00
2023-04-02T23:31:28.006Z,100.00
2023-04-02T23:33:55.093Z,100.00
2023-04-02T23:36:30.763Z,100.00
2023-04-02T23:39:01.982Z,100.00
2023-04-02T23:41:30.415Z,100.00
2023-04-02T23:43:58.309Z,100.00
2023-04-02T23:46:25.835Z,100.00
2023-04-02T23:48:54.382Z,100.00
2023-04-02T23:51:22.048Z,100.00
2023-04-02T23:53:50.625Z,100.00
2023-04-02T23:56:18.942Z,100.00
2023-04-02T23:58:45.960Z,100.00
